Time;durP1;ratioP1;P1;durP2;ratioP2;P2;SDS_P1;SDS_P2;PMS_P1;PMS_P2;Temp;Humidity;BMP_temperature;BMP_pressure;BME280_temperature;BME280_humidity;BME280_pressure;Samples;Min_cycle;Max_cycle;Signal;HPM_P1;HPM_P2
2022/12/11 00:01:24;;;;;;;13.87;8.67;;;;;;;;;;5031850;28;20202;-63
2022/12/11 00:03:52;;;;;;;14.17;10.23;;;;;;;;;;5024029;28;20423;-63
2022/12/11 00:06:20;;;;;;;15.30;10.70;;;;;;;;;;5030519;28;20202;-62
2022/12/11 00:08:51;;;;;;;15.67;10.50;;;;;;;;;;5040495;28;20884;-63
2022/12/11 00:11:18;;;;;;;15.33;10.70;;;;;;;;;;5025911;28;20293;-64
2022/12/11 00:13:46;;;;;;;14.47;10.17;;;;;;;;;;5035127;28;20292;-63
2022/12/11 00:16:13;;;;;;;16.83;11.40;;;;;;;;;;5028065;28;20221;-63
2022/12/11 00:18:40;;;;;;;18.97;12.33;;;;;;;;;;5031500;28;20735;-61
2022/12/11 00:21:10;;;;;;;16.60;11.50;;;;;;;;;;5033567;28;23235;-63
2022/12/11 00:23:38;;;;;;;15.37;10.87;;;;;;;;;;5041778;28;20292;-63
2022/12/11 00:26:06;;;;;;;15.07;10.20;;;;;;;;;;5047695;28;20235;-62
2022/12/11 00:28:34;;;;;;;14.40;10.30;;;;;;;;;;5026840;28;20242;-62
2022/12/11 00:31:05;;;;;;;14.93;11.03;;;;;;;;;;5023130;28;21587;-61
2022/12/11 00:33:33;;;;;;;14.20;10.93;;;;;;;;;;5015660;28;20258;-63
2022/12/11 00:36:00;;;;;;;16.40;10.80;;;;;;;;;;5026789;28;20344;-62
2022/12/11 00:38:28;;;;;;;20.47;12.63;;;;;;;;;;5023706;28;20340;-63
2022/12/11 00:40:59;;;;;;;18.13;12.40;;;;;;;;;;5022206;28;20229;-63
2022/12/11 00:43:26;;;;;;;18.87;12.60;;;;;;;;;;5023129;28;20611;-63
2022/12/11 00:45:53;;;;;;;18.50;12.53;;;;;;;;;;5019110;28;20229;-62
2022/12/11 00:48:21;;;;;;;19.23;12.33;;;;;;;;;;5045806;28;20259;-63
2022/12/11 00:50:48;;;;;;;19.70;12.37;;;;;;;;;;5043508;28;20206;-63
2022/12/11 00:53:15;;;;;;;17.13;12.13;;;;;;;;;;5031704;28;20205;-61
2022/12/11 00:55:43;;;;;;;21.73;13.17;;;;;;;;;;5032907;28;20237;-64
2022/12/11 00:58:11;;;;;;;20.03;13.37;;;;;;;;;;5021138;28;20198;-62
2022/12/11 01:00:39;;;;;;;19.37;13.77;;;;;;;;;;5017976;28;20323;-62
2022/12/11 01:03:07;;;;;;;20.20;12.73;;;;;;;;;;5036235;28;20271;-63
2022/12/11 01:05:36;;;;;;;21.03;14.00;;;;;;;;;;5038543;28;20237;-63
2022/12/11 01:08:03;;;;;;;22.67;15.03;;;;;;;;;;5029114;28;20305;-63
2022/12/11 01:10:31;;;;;;;22.03;15.00;;;;;;;;;;5021013;28;20209;-62
2022/12/11 01:13:00;;;;;;;22.97;13.33;;;;;;;;;;5023070;28;20205;-61
2022/12/11 01:15:29;;;;;;;20.37;12.83;;;;;;;;;;5022597;28;20272;-61
2022/12/11 01:17:57;;;;;;;20.30;12.57;;;;;;;;;;5025120;28;20200;-62
2022/12/11 01:20:25;;;;;;;21.13;13.37;;;;;;;;;;5031731;28;20216;-61
2022/12/11 01:22:53;;;;;;;21.97;14.27;;;;;;;;;;5022050;28;20250;-64
2022/12/11 01:25:21;;;;;;;23.27;14.67;;;;;;;;;;5020172;28;20324;-61
2022/12/11 01:27:50;;;;;;;23.07;15.10;;;;;;;;;;5021524;28;20630;-64
2022/12/11 01:30:18;;;;;;;22.73;14.77;;;;;;;;;;5015518;28;20211;-61
2022/12/11 01:32:46;;;;;;;21.63;14.37;;;;;;;;;;5012958;28;20206;-63
2022/12/11 01:35:14;;;;;;;24.23;15.03;;;;;;;;;;5025716;28;20354;-63
2022/12/11 01:37:41;;;;;;;21.90;14.53;;;;;;;;;;5021276;28;20312;-61
2022/12/11 01:40:09;;;;;;;23.60;15.07;;;;;;;;;;5022712;28;20205;-62
2022/12/11 01:42:37;;;;;;;21.10;14.17;;;;;;;;;;5029704;28;20203;-62
2022/12/11 01:45:23;;;;;;;22.40;14.53;;;;;;;;;;5044193;28;20317;-61
2022/12/11 01:48:17;;;;;;;22.90;14.83;;;;;;;;;;5034027;28;20206;-62
2022/12/11 01:50:48;;;;;;;20.77;13.43;;;;;;;;;;5025821;28;20296;-62
2022/12/11 01:53:26;;;;;;;24.17;15.00;;;;;;;;;;5050270;28;20649;-62
2022/12/11 01:55:57;;;;;;;25.10;14.97;;;;;;;;;;5029542;28;20229;-63
2022/12/11 01:58:26;;;;;;;23.33;14.20;;;;;;;;;;5026401;28;20803;-63
2022/12/11 02:00:54;;;;;;;23.77;14.37;;;;;;;;;;5020973;28;20297;-61
2022/12/11 02:03:22;;;;;;;24.33;15.43;;;;;;;;;;5011328;28;20213;-62
2022/12/11 02:05:51;;;;;;;21.23;13.57;;;;;;;;;;5036574;28;20236;-62
2022/12/11 02:08:18;;;;;;;19.07;13.37;;;;;;;;;;5019210;28;20310;-61
2022/12/11 02:10:57;;;;;;;19.07;13.10;;;;;;;;;;5006729;28;20214;-62
2022/12/11 02:13:24;;;;;;;23.23;14.17;;;;;;;;;;5016825;28;20217;-62
2022/12/11 02:16:24;;;;;;;20.37;13.10;;;;;;;;;;5032948;28;20737;-63
2022/12/11 02:18:58;;;;;;;19.60;12.37;;;;;;;;;;4974931;28;20229;-63
2022/12/11 02:21:28;;;;;;;18.90;12.50;;;;;;;;;;5013544;28;20352;-61
2022/12/11 02:24:01;;;;;;;17.37;11.30;;;;;;;;;;5047446;28;20579;-65
2022/12/11 02:26:36;;;;;;;18.50;12.00;;;;;;;;;;5050022;28;20335;-62
2022/12/11 02:29:08;;;;;;;17.17;11.17;;;;;;;;;;5036829;28;20225;-62
2022/12/11 02:31:36;;;;;;;15.13;10.50;;;;;;;;;;5044608;28;20232;-63
2022/12/11 02:34:22;;;;;;;12.63;9.20;;;;;;;;;;5030354;28;20209;-61
2022/12/11 02:36:52;;;;;;;14.03;9.97;;;;;;;;;;5016604;28;20224;-63
2022/12/11 02:39:21;;;;;;;17.63;11.40;;;;;;;;;;5010319;28;21009;-61
2022/12/11 02:41:50;;;;;;;16.90;10.80;;;;;;;;;;5017269;28;20317;-62
2022/12/11 02:44:24;;;;;;;17.40;11.47;;;;;;;;;;5017708;28;20325;-61
2022/12/11 02:46:52;;;;;;;15.27;10.80;;;;;;;;;;5019068;28;20246;-61
2022/12/11 02:49:20;;;;;;;14.33;9.97;;;;;;;;;;5010931;28;20754;-64
2022/12/11 02:51:48;;;;;;;19.03;11.60;;;;;;;;;;5036641;28;20323;-64
2022/12/11 02:54:27;;;;;;;13.40;9.63;;;;;;;;;;5028309;28;20229;-63
2022/12/11 02:56:58;;;;;;;15.53;10.63;;;;;;;;;;5020403;28;20724;-62
2022/12/11 02:59:29;;;;;;;15.90;10.67;;;;;;;;;;5022728;28;28114;-61
2022/12/11 03:01:57;;;;;;;16.83;11.47;;;;;;;;;;5018491;28;20209;-62
2022/12/11 03:04:24;;;;;;;19.03;13.13;;;;;;;;;;5023207;28;20587;-63
2022/12/11 03:06:53;;;;;;;18.43;12.10;;;;;;;;;;5020828;28;20707;-63
2022/12/11 03:09:21;;;;;;;18.80;13.00;;;;;;;;;;5036436;28;20297;-61
2022/12/11 03:11:49;;;;;;;18.90;13.07;;;;;;;;;;5024215;28;20216;-62
2022/12/11 03:14:16;;;;;;;15.50;11.13;;;;;;;;;;5035083;28;20601;-61
2022/12/11 03:16:55;;;;;;;13.07;9.70;;;;;;;;;;5034816;28;21754;-62
2022/12/11 03:19:30;;;;;;;12.87;8.50;;;;;;;;;;5021382;28;23132;-61
2022/12/11 03:22:08;;;;;;;15.10;9.80;;;;;;;;;;5028407;28;20220;-61
2022/12/11 03:24:36;;;;;;;13.73;9.63;;;;;;;;;;5027083;28;21036;-62
2022/12/11 03:27:30;;;;;;;12.30;9.13;;;;;;;;;;5022321;28;20236;-63
2022/12/11 03:30:00;;;;;;;12.83;8.90;;;;;;;;;;5014807;28;20430;-63
2022/12/11 03:32:29;;;;;;;11.13;8.20;;;;;;;;;;5022664;28;20209;-62
2022/12/11 03:35:07;;;;;;;12.33;8.47;;;;;;;;;;5016529;28;20325;-61
2022/12/11 03:37:35;;;;;;;10.33;7.83;;;;;;;;;;5013474;28;20370;-63
2022/12/11 03:40:05;;;;;;;11.23;7.83;;;;;;;;;;5040814;28;20205;-63
2022/12/11 03:42:33;;;;;;;11.50;8.40;;;;;;;;;;5033130;28;20216;-63
2022/12/11 03:45:02;;;;;;;13.23;8.80;;;;;;;;;;5039116;28;20264;-63
2022/12/11 03:47:30;;;;;;;10.03;7.73;;;;;;;;;;5041450;28;20241;-62
2022/12/11 03:49:59;;;;;;;9.87;7.37;;;;;;;;;;5045930;28;20313;-62
2022/12/11 03:52:28;;;;;;;13.87;8.47;;;;;;;;;;5043961;28;20216;-63
2022/12/11 03:54:58;;;;;;;15.07;9.37;;;;;;;;;;5043687;28;20229;-63
2022/12/11 03:57:27;;;;;;;11.70;8.60;;;;;;;;;;5020055;28;20240;-62
2022/12/11 03:59:54;;;;;;;14.80;9.47;;;;;;;;;;5043792;28;20204;-64
2022/12/11 04:02:21;;;;;;;12.93;9.00;;;;;;;;;;5041304;28;20214;-63
2022/12/11 04:04:48;;;;;;;11.73;8.60;;;;;;;;;;5023532;28;20300;-63
2022/12/11 04:07:16;;;;;;;13.67;8.40;;;;;;;;;;5034347;28;20279;-62
2022/12/11 04:09:43;;;;;;;15.10;9.43;;;;;;;;;;5015394;28;20289;-62
2022/12/11 04:12:10;;;;;;;14.77;9.77;;;;;;;;;;5020301;28;20210;-61
2022/12/11 04:25:42;;;;;;;13.47;8.70;;;;;;;;;;5035187;28;20325;-63
2022/12/11 04:28:10;;;;;;;12.27;8.93;;;;;;;;;;5044340;28;20253;-62
2022/12/11 04:30:37;;;;;;;13.50;9.60;;;;;;;;;;5015253;28;20217;-63
2022/12/11 04:33:05;;;;;;;12.63;8.87;;;;;;;;;;5033542;28;20206;-62
2022/12/11 04:35:32;;;;;;;9.77;8.37;;;;;;;;;;5013770;28;20364;-63
2022/12/11 04:38:00;;;;;;;11.93;8.37;;;;;;;;;;5018977;28;20229;-62
2022/12/11 04:40:27;;;;;;;12.07;8.70;;;;;;;;;;5017031;28;20312;-63
2022/12/11 04:42:54;;;;;;;11.73;8.60;;;;;;;;;;5018253;28;20897;-62
2022/12/11 04:45:22;;;;;;;12.20;8.70;;;;;;;;;;5025448;28;20251;-64
2022/12/11 04:47:49;;;;;;;11.83;8.33;;;;;;;;;;5014924;28;20341;-62
2022/12/11 04:50:17;;;;;;;11.50;8.30;;;;;;;;;;5017140;28;20736;-63
2022/12/11 04:52:44;;;;;;;11.50;8.50;;;;;;;;;;5018406;28;20299;-62
2022/12/11 04:55:12;;;;;;;12.33;8.57;;;;;;;;;;5020296;28;20316;-61
2022/12/11 04:57:40;;;;;;;13.73;9.10;;;;;;;;;;5034308;28;20599;-61
2022/12/11 05:00:08;;;;;;;13.03;8.63;;;;;;;;;;5018976;28;20588;-64
2022/12/11 05:02:37;;;;;;;12.50;8.73;;;;;;;;;;5017660;28;20335;-64
2022/12/11 05:05:05;;;;;;;12.57;8.53;;;;;;;;;;5022281;28;20721;-62
2022/12/11 05:07:32;;;;;;;14.47;9.30;;;;;;;;;;5031425;28;20293;-62
2022/12/11 05:10:00;;;;;;;13.77;8.90;;;;;;;;;;5009026;28;20303;-63
2022/12/11 05:12:27;;;;;;;13.20;8.87;;;;;;;;;;5022462;28;20295;-63
2022/12/11 05:14:54;;;;;;;12.73;9.10;;;;;;;;;;5020690;28;20247;-61
2022/12/11 05:17:22;;;;;;;16.67;10.53;;;;;;;;;;5021058;28;20224;-62
2022/12/11 05:19:51;;;;;;;27.97;14.80;;;;;;;;;;5032932;28;20927;-61
2022/12/11 05:22:18;;;;;;;21.97;12.07;;;;;;;;;;5021647;28;20217;-62
2022/12/11 05:24:45;;;;;;;25.37;12.60;;;;;;;;;;5023561;28;20311;-61
2022/12/11 05:27:13;;;;;;;31.57;15.70;;;;;;;;;;5021975;28;20594;-63
2022/12/11 05:29:40;;;;;;;33.77;17.10;;;;;;;;;;5026290;28;20222;-62
2022/12/11 05:32:08;;;;;;;29.00;14.00;;;;;;;;;;5032851;28;20222;-62
2022/12/11 05:34:35;;;;;;;24.83;14.50;;;;;;;;;;5020998;28;20401;-63
2022/12/11 05:37:03;;;;;;;28.93;15.63;;;;;;;;;;5030247;28;21372;-62
2022/12/11 05:39:30;;;;;;;27.20;15.00;;;;;;;;;;5021298;28;20339;-62
2022/12/11 05:41:57;;;;;;;26.30;13.57;;;;;;;;;;5022036;28;20562;-63
2022/12/11 05:44:25;;;;;;;22.47;12.27;;;;;;;;;;5054074;28;20227;-63
2022/12/11 05:46:53;;;;;;;12.00;8.00;;;;;;;;;;5042587;28;20213;-63
2022/12/11 05:49:21;;;;;;;15.73;9.43;;;;;;;;;;5045042;28;20207;-63
2022/12/11 05:51:56;;;;;;;17.77;9.07;;;;;;;;;;5031318;28;20205;-63
2022/12/11 05:54:24;;;;;;;12.57;8.03;;;;;;;;;;5033174;28;20298;-63
2022/12/11 05:56:51;;;;;;;12.37;8.63;;;;;;;;;;5033066;28;20235;-62
2022/12/11 05:59:18;;;;;;;12.53;8.33;;;;;;;;;;5021371;28;20213;-61
2022/12/11 06:01:46;;;;;;;12.07;8.30;;;;;;;;;;5028031;28;20205;-62
2022/12/11 06:04:13;;;;;;;12.60;8.73;;;;;;;;;;5011947;28;20589;-63
2022/12/11 06:06:42;;;;;;;15.33;10.33;;;;;;;;;;5038424;28;20317;-62
2022/12/11 06:09:14;;;;;;;15.23;9.93;;;;;;;;;;5023591;28;20604;-62
2022/12/11 06:11:41;;;;;;;13.90;9.37;;;;;;;;;;5038555;28;20296;-62
2022/12/11 06:14:09;;;;;;;14.87;9.37;;;;;;;;;;5031668;28;20227;-62
2022/12/11 06:16:37;;;;;;;14.63;8.93;;;;;;;;;;5036697;28;20291;-62
2022/12/11 06:19:04;;;;;;;12.87;8.97;;;;;;;;;;5008282;28;20299;-62
2022/12/11 06:21:32;;;;;;;12.43;9.40;;;;;;;;;;5013455;28;20210;-63
2022/12/11 06:24:01;;;;;;;15.20;10.03;;;;;;;;;;5027004;28;20235;-61
2022/12/11 06:26:29;;;;;;;15.63;10.83;;;;;;;;;;5033316;28;20206;-63
2022/12/11 06:28:56;;;;;;;15.07;10.20;;;;;;;;;;5030608;28;20212;-62
2022/12/11 06:31:23;;;;;;;14.40;9.47;;;;;;;;;;5036370;28;20326;-63
2022/12/11 06:33:51;;;;;;;15.17;10.17;;;;;;;;;;5033664;28;20220;-62
2022/12/11 06:36:20;;;;;;;14.83;10.00;;;;;;;;;;5026814;28;20211;-62
2022/12/11 06:38:47;;;;;;;16.00;10.37;;;;;;;;;;5024648;28;20629;-62
2022/12/11 06:41:15;;;;;;;16.87;10.30;;;;;;;;;;5004179;28;20333;-62
2022/12/11 06:43:43;;;;;;;15.77;10.13;;;;;;;;;;5021364;28;20210;-61
2022/12/11 06:46:12;;;;;;;16.10;11.40;;;;;;;;;;5013958;28;20232;-62
2022/12/11 06:48:41;;;;;;;19.47;11.27;;;;;;;;;;5022348;28;20215;-62
2022/12/11 06:51:13;;;;;;;18.97;10.70;;;;;;;;;;5014628;28;21103;-63
2022/12/11 06:53:40;;;;;;;14.67;10.50;;;;;;;;;;5038733;28;20265;-62
2022/12/11 06:56:10;;;;;;;17.40;10.60;;;;;;;;;;5020534;28;20238;-62
2022/12/11 06:58:37;;;;;;;18.30;11.60;;;;;;;;;;5025207;28;20280;-62
2022/12/11 07:01:05;;;;;;;20.80;11.63;;;;;;;;;;5021344;28;20220;-63
2022/12/11 07:03:32;;;;;;;18.23;11.73;;;;;;;;;;5027761;28;20240;-63
2022/12/11 07:06:01;;;;;;;18.83;12.30;;;;;;;;;;5025938;28;20359;-62
2022/12/11 07:08:29;;;;;;;19.70;13.27;;;;;;;;;;5025181;28;20250;-63
2022/12/11 07:11:02;;;;;;;20.80;12.67;;;;;;;;;;5025710;28;20252;-64
2022/12/11 07:13:29;;;;;;;21.90;13.30;;;;;;;;;;5022429;28;20695;-62
2022/12/11 07:15:58;;;;;;;20.47;13.27;;;;;;;;;;5043878;28;20257;-63
2022/12/11 07:18:26;;;;;;;20.87;12.33;;;;;;;;;;5023292;28;20368;-62
2022/12/11 07:20:53;;;;;;;19.47;11.67;;;;;;;;;;5025484;28;20287;-63
2022/12/11 07:23:21;;;;;;;19.50;12.03;;;;;;;;;;5014339;28;20303;-62
2022/12/11 07:25:48;;;;;;;16.57;10.90;;;;;;;;;;5023013;28;20265;-62
2022/12/11 07:28:15;;;;;;;19.80;11.80;;;;;;;;;;5025680;28;20777;-63
2022/12/11 07:30:44;;;;;;;18.20;11.30;;;;;;;;;;5029304;28;20218;-62
2022/12/11 07:33:11;;;;;;;18.60;11.30;;;;;;;;;;5052337;28;20309;-61
2022/12/11 07:35:38;;;;;;;17.03;10.90;;;;;;;;;;5041688;28;22134;-62
2022/12/11 07:38:06;;;;;;;21.80;13.00;;;;;;;;;;5015472;28;20243;-62
2022/12/11 07:40:34;;;;;;;14.73;10.33;;;;;;;;;;5016951;28;20319;-63
2022/12/11 07:43:01;;;;;;;17.33;11.20;;;;;;;;;;5028769;28;20226;-63
2022/12/11 07:45:29;;;;;;;15.93;10.93;;;;;;;;;;5049218;28;20222;-64
2022/12/11 07:47:56;;;;;;;17.17;11.23;;;;;;;;;;5037916;28;20220;-62
2022/12/11 07:50:24;;;;;;;20.90;13.33;;;;;;;;;;5035919;28;20297;-62
2022/12/11 07:52:51;;;;;;;15.63;11.07;;;;;;;;;;5040697;28;20231;-63
2022/12/11 07:55:19;;;;;;;14.87;10.07;;;;;;;;;;5031852;28;20363;-62
2022/12/11 07:57:47;;;;;;;14.80;10.13;;;;;;;;;;5038904;28;20321;-63
2022/12/11 08:00:14;;;;;;;15.87;10.00;;;;;;;;;;5017439;28;22984;-64
2022/12/11 08:02:42;;;;;;;15.83;10.83;;;;;;;;;;5016857;28;20206;-63
2022/12/11 08:05:11;;;;;;;14.70;9.60;;;;;;;;;;5018189;28;20232;-62
2022/12/11 08:07:38;;;;;;;16.07;10.50;;;;;;;;;;5019248;28;20219;-64
2022/12/11 08:10:06;;;;;;;13.10;10.10;;;;;;;;;;5017292;28;20198;-62
2022/12/11 08:12:33;;;;;;;15.83;9.80;;;;;;;;;;5033990;28;20296;-62
2022/12/11 08:15:01;;;;;;;14.93;9.20;;;;;;;;;;5024452;28;20329;-63
2022/12/11 08:17:28;;;;;;;16.53;10.37;;;;;;;;;;5017368;28;20309;-62
2022/12/11 08:20:02;;;;;;;15.83;10.43;;;;;;;;;;5036519;28;20220;-62
2022/12/11 08:22:30;;;;;;;14.07;9.60;;;;;;;;;;5029288;28;20234;-62
2022/12/11 08:24:57;;;;;;;14.07;9.93;;;;;;;;;;5006805;28;20224;-62
2022/12/11 08:27:25;;;;;;;16.57;10.13;;;;;;;;;;4997136;28;20300;-63
2022/12/11 08:29:53;;;;;;;17.93;10.67;;;;;;;;;;5006876;28;20211;-64
2022/12/11 08:32:20;;;;;;;20.10;11.67;;;;;;;;;;5008960;28;20202;-64
2022/12/11 08:34:47;;;;;;;18.40;11.83;;;;;;;;;;5017506;28;20233;-63
2022/12/11 08:37:15;;;;;;;18.57;10.80;;;;;;;;;;5003623;28;20236;-63
2022/12/11 08:39:43;;;;;;;28.23;16.80;;;;;;;;;;5008646;28;20443;-63
2022/12/11 08:42:11;;;;;;;28.23;16.87;;;;;;;;;;5008587;28;22445;-62
2022/12/11 08:44:38;;;;;;;24.83;15.53;;;;;;;;;;5005641;28;20243;-62
2022/12/11 08:47:05;;;;;;;23.03;15.30;;;;;;;;;;5009399;28;20212;-62
2022/12/11 08:49:33;;;;;;;20.00;12.60;;;;;;;;;;5021844;28;20311;-63
2022/12/11 08:52:01;;;;;;;18.10;11.93;;;;;;;;;;5017909;28;20813;-62
2022/12/11 08:54:28;;;;;;;32.37;18.73;;;;;;;;;;5028901;28;20323;-62
2022/12/11 08:56:56;;;;;;;21.83;12.40;;;;;;;;;;5005487;28;20296;-62
2022/12/11 08:59:24;;;;;;;15.80;10.67;;;;;;;;;;5014351;28;20716;-64
2022/12/11 09:01:52;;;;;;;19.50;11.73;;;;;;;;;;5031504;28;20215;-62
2022/12/11 09:04:19;;;;;;;19.67;12.73;;;;;;;;;;5010202;28;20746;-61
2022/12/11 09:06:47;;;;;;;16.47;10.70;;;;;;;;;;5006737;28;20209;-62
2022/12/11 09:09:14;;;;;;;17.20;11.20;;;;;;;;;;5006943;28;20239;-62
2022/12/11 09:11:42;;;;;;;17.57;11.80;;;;;;;;;;5003716;28;20209;-63
2022/12/11 09:14:09;;;;;;;15.90;10.73;;;;;;;;;;5012723;28;20242;-64
2022/12/11 09:16:39;;;;;;;16.53;10.73;;;;;;;;;;5005174;28;20220;-64
2022/12/11 09:19:07;;;;;;;17.30;10.43;;;;;;;;;;5026839;28;20228;-62
2022/12/11 09:21:35;;;;;;;22.83;11.20;;;;;;;;;;5011735;28;20207;-63
2022/12/11 09:24:03;;;;;;;111.00;52.83;;;;;;;;;;5005165;28;20700;-62
2022/12/11 09:26:31;;;;;;;34.90;18.90;;;;;;;;;;5017243;28;20217;-63
2022/12/11 09:28:58;;;;;;;25.33;16.03;;;;;;;;;;5019256;28;20418;-63
2022/12/11 09:31:27;;;;;;;22.90;16.37;;;;;;;;;;5029787;28;20213;-64
2022/12/11 09:33:56;;;;;;;20.33;13.10;;;;;;;;;;5028742;28;20296;-62
2022/12/11 09:36:24;;;;;;;28.17;17.00;;;;;;;;;;5014632;28;20206;-64
2022/12/11 09:38:52;;;;;;;29.27;18.57;;;;;;;;;;5018130;28;20879;-63
2022/12/11 09:41:23;;;;;;;17.40;12.33;;;;;;;;;;5030890;28;20206;-63
2022/12/11 09:44:06;;;;;;;17.07;10.97;;;;;;;;;;5024731;28;20359;-63
2022/12/11 09:46:37;;;;;;;13.40;8.83;;;;;;;;;;5037947;28;20232;-62
2022/12/11 09:49:11;;;;;;;16.13;9.00;;;;;;;;;;5019033;28;20211;-62
2022/12/11 09:51:43;;;;;;;11.37;8.17;;;;;;;;;;5019932;28;20217;-63
2022/12/11 09:54:12;;;;;;;12.17;8.77;;;;;;;;;;5019962;28;20221;-63
2022/12/11 09:56:48;;;;;;;9.97;8.10;;;;;;;;;;5028587;28;20709;-63
2022/12/11 09:59:21;;;;;;;10.50;8.03;;;;;;;;;;5037824;28;20729;-63
2022/12/11 10:02:09;;;;;;;11.13;7.93;;;;;;;;;;5051436;28;20300;-61
2022/12/11 10:04:49;;;;;;;11.53;7.33;;;;;;;;;;4996066;28;20237;-62
2022/12/11 10:07:16;;;;;;;10.73;7.60;;;;;;;;;;5032221;28;20865;-64
2022/12/11 10:10:02;;;;;;;12.40;8.10;;;;;;;;;;5032671;28;20248;-62
2022/12/11 10:12:56;;;;;;;9.67;6.70;;;;;;;;;;5033645;28;20307;-64
2022/12/11 10:15:24;;;;;;;10.13;6.87;;;;;;;;;;4999712;28;21219;-63
2022/12/11 10:17:53;;;;;;;8.50;6.00;;;;;;;;;;5048003;28;20791;-63
2022/12/11 10:20:33;;;;;;;10.07;6.87;;;;;;;;;;5040411;28;20216;-62
2022/12/11 10:23:01;;;;;;;13.27;8.40;;;;;;;;;;5029397;28;20206;-63
2022/12/11 10:25:30;;;;;;;12.53;8.83;;;;;;;;;;5027228;28;20228;-63
2022/12/11 10:27:59;;;;;;;9.40;6.50;;;;;;;;;;5045256;28;20337;-63
2022/12/11 10:30:34;;;;;;;8.27;6.33;;;;;;;;;;5028582;28;20682;-63
2022/12/11 10:33:17;;;;;;;12.13;7.73;;;;;;;;;;5031000;28;20213;-63
2022/12/11 10:35:47;;;;;;;10.17;6.60;;;;;;;;;;5034313;28;20218;-63
2022/12/11 10:38:26;;;;;;;7.90;6.07;;;;;;;;;;5060017;28;20277;-62
2022/12/11 10:40:56;;;;;;;8.83;6.07;;;;;;;;;;5030065;28;20205;-62
2022/12/11 10:43:44;;;;;;;8.20;6.67;;;;;;;;;;5031834;28;20237;-63
2022/12/11 10:46:31;;;;;;;7.77;5.87;;;;;;;;;;5024676;28;20585;-63
2022/12/11 10:49:00;;;;;;;8.10;5.73;;;;;;;;;;5032075;28;20217;-63
2022/12/11 10:51:30;;;;;;;9.67;6.10;;;;;;;;;;5033751;28;20871;-62
2022/12/11 10:54:05;;;;;;;8.47;6.17;;;;;;;;;;5042683;28;20239;-63
2022/12/11 10:56:35;;;;;;;7.43;5.60;;;;;;;;;;5028068;28;20586;-63
2022/12/11 10:59:02;;;;;;;7.10;4.23;;;;;;;;;;5056667;28;20299;-64
2022/12/11 11:01:31;;;;;;;7.17;5.37;;;;;;;;;;5033503;28;20215;-62
2022/12/11 11:04:03;;;;;;;5.97;4.63;;;;;;;;;;5030979;28;20213;-62
2022/12/11 11:06:30;;;;;;;8.73;5.27;;;;;;;;;;5031555;28;20201;-62
2022/12/11 11:08:59;;;;;;;6.23;4.20;;;;;;;;;;5035794;28;20578;-62
2022/12/11 11:11:28;;;;;;;5.93;4.27;;;;;;;;;;5051970;28;20576;-62
2022/12/11 11:14:05;;;;;;;6.37;4.57;;;;;;;;;;5033625;28;20667;-61
2022/12/11 11:16:35;;;;;;;4.70;3.50;;;;;;;;;;5029665;28;20340;-61
2022/12/11 11:19:03;;;;;;;6.97;4.30;;;;;;;;;;5027286;28;20387;-62
2022/12/11 11:21:32;;;;;;;6.53;4.40;;;;;;;;;;5024987;28;20575;-61
2022/12/11 11:23:59;;;;;;;12.00;7.40;;;;;;;;;;5037390;28;20289;-62
2022/12/11 11:26:30;;;;;;;8.10;5.57;;;;;;;;;;5019905;28;20211;-62
2022/12/11 11:29:24;;;;;;;7.37;4.63;;;;;;;;;;5025875;28;20672;-62
2022/12/11 11:31:52;;;;;;;8.70;4.17;;;;;;;;;;5029194;28;20367;-63
2022/12/11 11:34:21;;;;;;;6.60;4.60;;;;;;;;;;5060443;28;20761;-63
2022/12/11 11:36:56;;;;;;;6.37;3.70;;;;;;;;;;5045882;28;20651;-62
2022/12/11 11:39:44;;;;;;;5.37;3.83;;;;;;;;;;5031535;28;20242;-63
2022/12/11 11:42:43;;;;;;;5.43;2.73;;;;;;;;;;5037045;28;20651;-64
2022/12/11 11:45:15;;;;;;;4.47;2.60;;;;;;;;;;4991504;28;20230;-63
2022/12/11 11:47:49;;;;;;;4.40;2.70;;;;;;;;;;5028854;28;20212;-63
2022/12/11 11:50:24;;;;;;;4.87;2.60;;;;;;;;;;5036845;28;20213;-62
2022/12/11 11:52:55;;;;;;;4.00;3.40;;;;;;;;;;5034234;28;20208;-63
2022/12/11 11:55:41;;;;;;;2.70;2.50;;;;;;;;;;5048460;28;20353;-63
2022/12/11 11:58:28;;;;;;;3.60;3.13;;;;;;;;;;5021466;28;20296;-63
2022/12/11 12:00:56;;;;;;;3.87;3.03;;;;;;;;;;5016643;28;20302;-63
2022/12/11 12:03:24;;;;;;;3.93;3.17;;;;;;;;;;5012226;28;20342;-63
2022/12/11 12:06:04;;;;;;;6.33;3.53;;;;;;;;;;5034208;28;20895;-63
2022/12/11 12:08:38;;;;;;;3.70;2.70;;;;;;;;;;5015050;28;20819;-61
2022/12/11 12:11:24;;;;;;;3.93;2.70;;;;;;;;;;5008026;28;20593;-62
2022/12/11 12:14:04;;;;;;;4.27;2.50;;;;;;;;;;5033898;28;20298;-62
2022/12/11 12:16:57;;;;;;;4.73;2.73;;;;;;;;;;5039475;28;20206;-63
2022/12/11 12:19:52;;;;;;;5.30;3.10;;;;;;;;;;5045973;28;20234;-62
2022/12/11 12:22:26;;;;;;;3.60;2.63;;;;;;;;;;5022696;28;20263;-63
2022/12/11 12:25:00;;;;;;;4.47;2.67;;;;;;;;;;5020907;28;20356;-64
2022/12/11 12:27:37;;;;;;;4.73;3.13;;;;;;;;;;5025419;28;20211;-63
2022/12/11 12:30:20;;;;;;;2.93;2.70;;;;;;;;;;5036037;28;20291;-63
2022/12/11 12:32:59;;;;;;;3.97;2.83;;;;;;;;;;5048641;28;20303;-61
2022/12/11 12:35:41;;;;;;;4.30;2.87;;;;;;;;;;5025218;28;20258;-61
2022/12/11 12:38:29;;;;;;;3.80;2.73;;;;;;;;;;5023887;28;20226;-61
2022/12/11 12:41:04;;;;;;;2.53;2.33;;;;;;;;;;5031037;28;20376;-63
2022/12/11 12:43:31;;;;;;;2.60;2.00;;;;;;;;;;5038146;28;20215;-63
2022/12/11 12:46:11;;;;;;;2.60;2.37;;;;;;;;;;5022795;28;20348;-64
2022/12/11 12:48:38;;;;;;;4.60;2.50;;;;;;;;;;5023591;28;20310;-62
2022/12/11 12:51:06;;;;;;;4.17;2.27;;;;;;;;;;5031812;28;20207;-62
2022/12/11 12:53:35;;;;;;;3.23;1.90;;;;;;;;;;5033585;28;20211;-62
2022/12/11 12:56:04;;;;;;;2.10;1.90;;;;;;;;;;5035315;28;20237;-62
2022/12/11 12:58:51;;;;;;;2.83;1.90;;;;;;;;;;5034453;28;20552;-62
2022/12/11 13:01:20;;;;;;;2.10;1.83;;;;;;;;;;5038211;28;20296;-63
2022/12/11 13:04:00;;;;;;;3.23;2.30;;;;;;;;;;5029200;28;20207;-63
2022/12/11 13:06:55;;;;;;;2.40;2.30;;;;;;;;;;5027852;28;20698;-63
2022/12/11 13:09:24;;;;;;;2.83;2.30;;;;;;;;;;5033476;28;20210;-62
2022/12/11 13:11:56;;;;;;;2.30;2.10;;;;;;;;;;5031486;28;20216;-63
2022/12/11 13:14:32;;;;;;;2.60;2.40;;;;;;;;;;5030779;28;20270;-61
2022/12/11 13:17:30;;;;;;;1.90;1.80;;;;;;;;;;5044639;28;20298;-62
2022/12/11 13:20:16;;;;;;;2.20;1.80;;;;;;;;;;5018080;28;20311;-62
2022/12/11 13:23:08;;;;;;;3.03;2.70;;;;;;;;;;5032809;28;21263;-63
2022/12/11 13:25:49;;;;;;;2.27;2.07;;;;;;;;;;5028234;28;20253;-62
2022/12/11 13:28:31;;;;;;;4.00;2.90;;;;;;;;;;5048818;28;21379;-63
2022/12/11 13:31:18;;;;;;;2.50;2.30;;;;;;;;;;5049957;28;20288;-62
2022/12/11 13:33:47;;;;;;;2.90;2.70;;;;;;;;;;5032541;28;20216;-62
2022/12/11 13:36:18;;;;;;;2.93;2.67;;;;;;;;;;5025255;28;20237;-63
2022/12/11 13:38:57;;;;;;;2.80;2.03;;;;;;;;;;5032815;28;20709;-63
2022/12/11 13:41:24;;;;;;;2.77;2.57;;;;;;;;;;5039149;28;20292;-63
2022/12/11 13:43:52;;;;;;;2.27;2.13;;;;;;;;;;5043760;28;20695;-62
2022/12/11 13:46:24;;;;;;;2.10;2.00;;;;;;;;;;5037105;28;20742;-62
2022/12/11 13:48:55;;;;;;;3.63;1.80;;;;;;;;;;5048638;28;20315;-63
2022/12/11 13:51:24;;;;;;;2.40;2.10;;;;;;;;;;5051013;28;20205;-63
2022/12/11 13:54:04;;;;;;;2.70;2.03;;;;;;;;;;5038669;28;20216;-61
2022/12/11 13:56:31;;;;;;;2.10;1.90;;;;;;;;;;5044589;28;20349;-64
2022/12/11 13:58:59;;;;;;;2.03;1.90;;;;;;;;;;5044371;28;20317;-63
2022/12/11 14:01:31;;;;;;;1.97;1.87;;;;;;;;;;5039372;28;20291;-63
2022/12/11 14:03:59;;;;;;;2.20;2.00;;;;;;;;;;5047114;28;20201;-63
2022/12/11 14:06:27;;;;;;;2.83;2.00;;;;;;;;;;5047810;28;20252;-63
2022/12/11 14:08:55;;;;;;;2.27;2.07;;;;;;;;;;5039295;28;20301;-62
2022/12/11 14:11:27;;;;;;;2.60;2.00;;;;;;;;;;5038618;28;20288;-62
2022/12/11 14:13:59;;;;;;;2.83;2.60;;;;;;;;;;5033705;28;20298;-62
2022/12/11 14:16:27;;;;;;;7.87;4.30;;;;;;;;;;5044124;28;20234;-63
2022/12/11 14:18:57;;;;;;;5.13;4.53;;;;;;;;;;5029304;28;20218;-63
2022/12/11 14:21:25;;;;;;;5.80;4.37;;;;;;;;;;5024362;28;20207;-63
2022/12/11 14:23:57;;;;;;;3.47;3.27;;;;;;;;;;5032230;28;20294;-63
2022/12/11 14:26:29;;;;;;;5.63;3.13;;;;;;;;;;5046631;28;20294;-62
2022/12/11 14:28:56;;;;;;;2.43;2.23;;;;;;;;;;5048423;28;20288;-62
2022/12/11 14:31:23;;;;;;;3.93;2.27;;;;;;;;;;5017607;28;20197;-62
2022/12/11 14:33:53;;;;;;;3.00;2.57;;;;;;;;;;5033999;28;20197;-63
2022/12/11 14:36:21;;;;;;;5.97;2.80;;;;;;;;;;5032965;28;20260;-64
2022/12/11 14:38:48;;;;;;;3.33;3.03;;;;;;;;;;5036631;28;20209;-63
2022/12/11 14:41:29;;;;;;;3.97;3.57;;;;;;;;;;5041339;28;20198;-63
2022/12/11 14:44:01;;;;;;;5.67;3.60;;;;;;;;;;4988985;28;1189024;-62
2022/12/11 14:46:34;;;;;;;6.17;4.20;;;;;;;;;;5030078;28;20661;-62
2022/12/11 14:49:05;;;;;;;6.00;3.77;;;;;;;;;;5025850;28;20820;-63
2022/12/11 14:51:34;;;;;;;4.10;3.27;;;;;;;;;;5032182;28;20201;-61
2022/12/11 14:54:02;;;;;;;3.37;3.07;;;;;;;;;;5034479;28;20737;-62
2022/12/11 14:56:30;;;;;;;4.47;3.20;;;;;;;;;;5028206;28;20623;-63
2022/12/11 14:59:02;;;;;;;3.17;2.87;;;;;;;;;;5036503;28;21324;-63
2022/12/11 15:01:36;;;;;;;4.07;3.17;;;;;;;;;;5042998;28;20209;-63